Time;durP1;ratioP1;P1;durP2;ratioP2;P2;SDS_P1;SDS_P2;PMS_P1;PMS_P2;Temp;Humidity;BMP_temperature;BMP_pressure;BME280_temperature;BME280_humidity;BME280_pressure;Samples;Min_cycle;Max_cycle;Signal;HPM_P1;HPM_P2
2024/03/19 00:00:12;;;;;;;4.75;2.05;;;;;;;15.56;44.92;98311.78;4921771;29;20023;-75
2024/03/19 00:02:39;;;;;;;4.03;2.10;;;;;;;15.49;45.03;98302.88;4924513;29;20082;-75
2024/03/19 00:05:05;;;;;;;3.60;2.13;;;;;;;15.47;44.78;98303.03;4922545;29;20114;-74
2024/03/19 00:07:31;;;;;;;2.78;1.80;;;;;;;15.45;45.01;98302.38;4922233;29;20039;-74
2024/03/19 00:09:56;;;;;;;4.72;1.95;;;;;;;15.46;45.08;98300.56;4921308;29;20042;-75
2024/03/19 00:12:24;;;;;;;2.88;2.15;;;;;;;15.43;45.15;98300.88;4954995;28;20039;-75
2024/03/19 00:14:50;;;;;;;3.25;2.15;;;;;;;15.40;45.06;98298.56;4938247;29;20034;-75
2024/03/19 00:17:16;;;;;;;3.90;1.85;;;;;;;15.38;44.94;98298.72;4937831;29;20047;-74
2024/03/19 00:19:42;;;;;;;2.80;1.67;;;;;;;15.31;45.14;98288.00;4938346;29;20046;-74
2024/03/19 00:22:08;;;;;;;4.22;2.03;;;;;;;15.35;45.08;98288.50;4922261;29;20041;-75
2024/03/19 00:24:33;;;;;;;4.07;1.90;;;;;;;15.32;45.07;98289.69;4923196;28;20047;-75
2024/03/19 00:26:59;;;;;;;5.25;1.92;;;;;;;15.32;44.99;98286.19;4940347;28;20035;-76
2024/03/19 00:29:26;;;;;;;2.60;1.60;;;;;;;15.30;45.02;98283.72;4956323;28;20062;-75
2024/03/19 00:31:52;;;;;;;3.10;1.75;;;;;;;15.24;44.81;98273.84;4941364;28;20031;-74
2024/03/19 00:34:17;;;;;;;2.67;1.77;;;;;;;15.27;44.92;98284.03;4940524;28;20085;-75
2024/03/19 00:36:43;;;;;;;2.30;1.70;;;;;;;15.26;44.93;98285.03;4941313;28;20041;-74
2024/03/19 00:39:10;;;;;;;3.88;1.70;;;;;;;15.22;44.79;98278.44;4940530;28;20054;-75
2024/03/19 00:41:39;;;;;;;3.92;1.83;;;;;;;15.18;44.76;98269.22;4973287;28;20034;-75
2024/03/19 00:44:04;;;;;;;;;;;;;;;15.20;44.84;98270.72;4956730;28;20027;-75
2024/03/19 00:46:31;;;;;;;2.88;1.90;;;;;;;15.14;44.96;98266.09;4956414;28;19922;-74
2024/03/19 00:48:56;;;;;;;3.17;1.85;;;;;;;15.15;44.83;98259.84;4924971;28;20499;-74
2024/03/19 00:51:21;;;;;;;3.80;1.70;;;;;;;15.19;44.84;98269.06;4940580;28;20050;-74
2024/03/19 00:53:47;;;;;;;2.28;1.60;;;;;;;15.17;44.68;98257.88;4923079;28;20042;-74
2024/03/19 00:56:12;;;;;;;2.83;1.58;;;;;;;15.16;44.58;98255.41;4955433;28;20041;-73
2024/03/19 00:58:38;;;;;;;3.58;1.88;;;;;;;15.13;44.66;98246.06;4956817;28;20038;-73
2024/03/19 01:01:04;;;;;;;2.88;1.77;;;;;;;15.19;44.63;98260.34;4974550;28;20026;-73
2024/03/19 01:03:29;;;;;;;2.97;1.55;;;;;;;15.21;44.57;98255.75;4974231;28;20046;-73
2024/03/19 01:05:55;;;;;;;2.60;1.70;;;;;;;15.21;44.52;98261.00;4957015;28;20039;-73
2024/03/19 01:08:20;;;;;;;4.20;1.90;;;;;;;15.22;44.56;98256.59;4974384;28;20045;-73
2024/03/19 01:10:46;;;;;;;3.13;1.58;;;;;;;15.22;44.49;98251.34;4922891;28;20046;-74
2024/03/19 01:13:11;;;;;;;3.75;1.50;;;;;;;15.22;44.53;98248.72;4955806;28;20078;-74
2024/03/19 01:15:37;;;;;;;4.45;1.70;;;;;;;15.22;44.63;98252.16;4940669;28;20038;-74
2024/03/19 01:18:04;;;;;;;2.13;1.55;;;;;;;15.17;44.59;98242.09;4956793;28;20035;-73
2024/03/19 01:20:31;;;;;;;2.20;1.55;;;;;;;15.20;44.66;98251.50;4941114;28;20030;-73
2024/03/19 01:22:57;;;;;;;4.45;1.92;;;;;;;15.19;44.73;98252.47;4924518;28;20505;-74
2024/03/19 01:25:22;;;;;;;5.20;1.70;;;;;;;15.14;44.79;98244.25;4924551;28;20039;-74
2024/03/19 01:27:49;;;;;;;3.60;2.20;;;;;;;15.15;44.75;98248.53;4939524;28;20050;-73
2024/03/19 01:30:16;;;;;;;4.43;3.20;;;;;;;15.13;44.92;98253.94;4956988;28;20030;-73
2024/03/19 01:32:41;;;;;;;6.25;3.55;;;;;;;15.13;44.94;98247.84;4956753;28;20405;-73
2024/03/19 01:35:07;;;;;;;6.07;3.75;;;;;;;15.11;45.03;98241.91;4955940;28;20042;-73
2024/03/19 01:37:32;;;;;;;6.25;4.20;;;;;;;15.12;45.02;98246.22;4940407;28;20047;-74
2024/03/19 01:39:58;;;;;;;6.97;4.10;;;;;;;15.10;44.91;98246.38;4940551;28;20027;-74
2024/03/19 01:42:23;;;;;;;8.38;5.13;;;;;;;15.10;45.27;98250.78;4955975;28;20068;-74
2024/03/19 01:44:50;;;;;;;9.68;4.88;;;;;;;15.10;45.30;98245.53;4956125;28;20430;-74
2024/03/19 01:47:17;;;;;;;7.07;4.35;;;;;;;15.08;45.08;98236.97;4956202;28;20502;-74
2024/03/19 01:49:43;;;;;;;8.55;4.88;;;;;;;15.07;45.23;98243.22;4940535;28;20557;-74
2024/03/19 01:52:08;;;;;;;8.43;4.10;;;;;;;15.07;45.26;98241.44;4940515;28;20031;-74
2024/03/19 01:54:34;;;;;;;7.28;4.32;;;;;;;15.04;45.16;98238.25;4940560;28;20062;-74
2024/03/19 01:57:00;;;;;;;6.40;3.60;;;;;;;15.00;45.26;98237.75;4956231;28;20061;-74
2024/03/19 01:59:25;;;;;;;7.40;4.32;;;;;;;15.02;45.03;98249.78;4924300;28;20478;-74
2024/03/19 02:01:51;;;;;;;7.07;4.30;;;;;;;15.00;45.11;98254.34;4939803;28;20058;-74
2024/03/19 02:04:16;;;;;;;11.38;5.38;;;;;;;14.98;45.45;98255.50;4955614;28;20046;-73
2024/03/19 02:06:42;;;;;;;12.05;6.10;;;;;;;14.96;45.46;98249.56;4940089;28;20487;-74
2024/03/19 02:09:09;;;;;;;13.15;7.60;;;;;;;14.97;45.43;98270.44;4924202;28;20054;-74
2024/03/19 02:11:35;;;;;;;13.80;7.20;;;;;;;14.97;45.67;98259.91;4940046;28;20042;-73
2024/03/19 02:14:00;;;;;;;10.88;6.88;;;;;;;14.91;45.50;98262.34;4940471;28;20031;-74
2024/03/19 02:16:26;;;;;;;14.90;7.20;;;;;;;14.89;45.67;98267.75;4955884;28;20420;-74
2024/03/19 02:18:59;;;;;;;12.85;7.75;;;;;;;14.92;45.67;98271.91;4940107;28;20037;-73
2024/03/19 02:21:26;;;;;;;13.13;8.32;;;;;;;14.89;45.92;98275.66;4955212;28;20489;-73
2024/03/19 02:23:53;;;;;;;14.10;6.93;;;;;;;14.87;45.85;98268.91;4939807;28;20046;-74
2024/03/19 02:26:18;;;;;;;11.30;7.18;;;;;;;14.84;46.09;98272.66;4924211;28;20494;-73
2024/03/19 02:28:44;;;;;;;11.10;6.82;;;;;;;14.81;46.24;98271.16;4956056;28;20042;-74
2024/03/19 02:31:09;;;;;;;11.10;6.80;;;;;;;14.80;46.14;98272.16;4973227;28;20030;-73
2024/03/19 02:33:35;;;;;;;10.07;7.10;;;;;;;14.75;46.30;98269.16;4974747;28;20097;-73
2024/03/19 02:36:00;;;;;;;13.20;7.18;;;;;;;14.76;46.26;98272.63;4977105;28;20446;-73
2024/03/19 02:38:27;;;;;;;12.32;6.50;;;;;;;14.74;46.34;98269.34;4943816;28;20110;-73
2024/03/19 02:40:53;;;;;;;10.82;5.85;;;;;;;14.72;46.57;98273.91;4959925;28;20038;-73
2024/03/19 02:43:19;;;;;;;9.25;6.05;;;;;;;14.69;46.45;98271.59;4959487;28;20023;-73
2024/03/19 02:45:44;;;;;;;11.48;6.18;;;;;;;14.63;46.58;98267.78;4959144;28;20523;-73
2024/03/19 02:48:12;;;;;;;9.38;6.10;;;;;;;14.63;46.80;98273.03;4943357;28;20074;-73
2024/03/19 02:50:37;;;;;;;11.73;7.07;;;;;;;14.57;46.89;98269.19;4976837;28;20046;-73
2024/03/19 02:53:03;;;;;;;12.27;5.88;;;;;;;14.58;46.96;98277.88;4958858;28;20039;-73
2024/03/19 02:55:29;;;;;;;10.40;6.50;;;;;;;14.53;47.28;98273.13;4959539;28;20035;-73
2024/03/19 02:57:54;;;;;;;10.60;5.53;;;;;;;14.52;47.04;98286.41;4959593;28;20443;-73
2024/03/19 03:00:20;;;;;;;9.75;6.07;;;;;;;14.41;47.11;98282.22;4976693;28;20106;-74
2024/03/19 03:02:45;;;;;;;8.55;5.63;;;;;;;14.43;47.21;98286.31;4941976;28;20034;-73
2024/03/19 03:05:10;;;;;;;8.45;4.90;;;;;;;14.39;47.04;98281.53;4976800;28;20038;-74
2024/03/19 03:07:36;;;;;;;11.02;6.20;;;;;;;14.41;46.97;98288.28;4943095;28;20394;-74
2024/03/19 03:10:03;;;;;;;7.18;4.65;;;;;;;14.35;46.97;98288.06;4976685;28;20031;-74
2024/03/19 03:12:29;;;;;;;6.95;4.60;;;;;;;14.37;46.99;98294.81;4943816;28;20031;-74
2024/03/19 03:14:54;;;;;;;6.45;4.15;;;;;;;14.37;47.14;98294.00;4943202;28;20038;-74
2024/03/19 03:17:20;;;;;;;7.22;4.30;;;;;;;14.35;47.07;98295.94;4976516;28;20026;-74
2024/03/19 03:19:45;;;;;;;7.90;4.47;;;;;;;14.27;47.20;98284.41;4943169;28;20467;-73
2024/03/19 03:22:11;;;;;;;7.45;4.10;;;;;;;14.26;47.40;98279.28;4926030;28;20035;-74
2024/03/19 03:24:36;;;;;;;9.20;4.22;;;;;;;14.28;47.20;98287.88;4957097;28;20055;-74
2024/03/19 03:27:03;;;;;;;7.78;3.78;;;;;;;14.26;47.24;98285.38;4941961;28;20026;-74
2024/03/19 03:29:29;;;;;;;6.28;3.78;;;;;;;14.23;47.31;98279.59;4975089;28;20114;-74
2024/03/19 03:31:55;;;;;;;7.97;3.75;;;;;;;14.19;47.28;98281.72;4942137;28;20092;-74
2024/03/19 03:34:21;;;;;;;6.45;3.95;;;;;;;14.08;47.34;98266.19;4942396;28;20113;-73
2024/03/19 03:36:47;;;;;;;7.13;3.92;;;;;;;14.13;47.58;98284.13;4958668;28;20120;-73
2024/03/19 03:39:12;;;;;;;5.30;3.35;;;;;;;14.13;47.61;98281.50;4942589;28;20050;-73
2024/03/19 03:41:40;;;;;;;5.82;4.05;;;;;;;14.08;47.58;98284.56;4975883;28;20030;-73
2024/03/19 03:44:06;;;;;;;7.47;3.83;;;;;;;14.08;47.68;98284.56;4958673;28;20065;-74
2024/03/19 03:46:31;;;;;;;7.85;3.92;;;;;;;14.04;47.78;98275.31;4941905;28;20420;-73
2024/03/19 03:48:56;;;;;;;7.07;3.70;;;;;;;14.03;47.73;98277.13;4942487;28;20058;-73
2024/03/19 03:51:22;;;;;;;5.13;3.70;;;;;;;14.00;48.05;98274.81;4983718;28;20041;-73
2024/03/19 03:53:48;;;;;;;5.95;4.00;;;;;;;14.02;48.18;98285.97;4961600;28;20038;-73
2024/03/19 03:56:13;;;;;;;8.20;3.30;;;;;;;14.01;48.15;98289.59;4961737;28;20076;-74
2024/03/19 03:58:39;;;;;;;6.53;3.92;;;;;;;13.93;48.24;98277.22;4961241;28;20038;-73
2024/03/19 04:01:04;;;;;;;5.13;3.65;;;;;;;13.91;48.34;98283.59;4961525;28;20401;-73
2024/03/19 04:03:31;;;;;;;5.93;3.65;;;;;;;13.80;48.03;98265.44;4959573;28;20033;-74
2024/03/19 04:05:57;;;;;;;8.20;3.80;;;;;;;13.88;48.43;98276.84;4975013;28;20042;-73
2024/03/19 04:08:22;;;;;;;5.18;3.53;;;;;;;13.86;48.50;98273.53;4960385;28;20031;-73
2024/03/19 04:10:48;;;;;;;7.93;3.80;;;;;;;13.80;48.44;98265.44;4960668;28;20042;-73
2024/03/19 04:13:13;;;;;;;4.63;3.42;;;;;;;13.78;48.59;98270.03;4961296;28;20030;-74
2024/03/19 04:15:39;;;;;;;7.80;4.20;;;;;;;13.74;48.59;98270.31;4961345;28;20034;-73
2024/03/19 04:18:04;;;;;;;6.95;4.15;;;;;;;13.79;48.55;98287.38;4944996;28;20050;-73
2024/03/19 04:20:30;;;;;;;5.80;3.78;;;;;;;13.77;48.79;98281.47;4945086;28;20046;-74
2024/03/19 04:22:56;;;;;;;6.13;3.78;;;;;;;13.70;48.77;98286.50;4972882;28;20086;-73
2024/03/19 04:25:21;;;;;;;5.22;3.70;;;;;;;13.72;48.80;98282.72;4942383;28;20035;-74
2024/03/19 04:27:47;;;;;;;5.85;3.72;;;;;;;13.67;48.62;98281.53;4925673;28;20201;-73
2024/03/19 04:30:13;;;;;;;6.57;3.78;;;;;;;13.70;48.54;98289.13;4957934;28;20059;-73
2024/03/19 04:32:38;;;;;;;7.45;3.65;;;;;;;13.64;48.51;98280.03;4957755;28;20046;-74
2024/03/19 04:35:04;;;;;;;7.25;4.38;;;;;;;13.66;48.47;98275.47;4941974;28;20042;-76
2024/03/19 04:37:30;;;;;;;5.70;3.97;;;;;;;13.67;48.83;98287.59;4958232;28;20343;-73
2024/03/19 04:39:56;;;;;;;5.28;3.50;;;;;;;13.63;48.73;98278.41;4957944;28;20022;-73
2024/03/19 04:42:23;;;;;;;7.53;3.67;;;;;;;13.68;48.58;98294.50;4957542;28;20458;-74
2024/03/19 04:44:48;;;;;;;6.15;4.35;;;;;;;13.69;48.80;98287.47;4941192;28;20037;-71
2024/03/19 04:47:17;;;;;;;7.13;4.20;;;;;;;13.71;48.51;98290.75;4974887;28;20401;-71
2024/03/19 04:49:43;;;;;;;9.35;3.83;;;;;;;13.94;60.33;98294.59;4957895;28;20089;-72
2024/03/19 04:52:09;;;;;;;9.57;4.60;;;;;;;14.24;66.51;98299.63;4941738;28;20089;-72
2024/03/19 04:54:35;;;;;;;9.88;4.85;;;;;;;14.41;65.14;98305.84;4941550;28;20023;-71
2024/03/19 04:57:00;;;;;;;13.88;6.28;;;;;;;14.37;60.05;98299.25;4974319;28;20113;-72
2024/03/19 04:59:25;;;;;;;13.45;7.47;;;;;;;14.43;60.30;98317.00;4957137;28;20133;-73
2024/03/19 05:01:51;;;;;;;11.15;7.05;;;;;;;14.42;60.19;98317.97;4957533;28;20033;-73
2024/03/19 05:04:16;;;;;;;13.35;6.40;;;;;;;14.58;60.38;98325.16;4956967;28;20059;-72
2024/03/19 05:06:42;;;;;;;11.95;7.00;;;;;;;14.52;58.39;98318.72;4957200;28;20465;-74
2024/03/19 05:09:09;;;;;;;10.20;5.85;;;;;;;14.58;58.02;98325.16;4925247;28;20031;-72
2024/03/19 05:11:35;;;;;;;11.88;5.85;;;;;;;14.94;56.98;98312.81;4941247;28;20061;-75
2024/03/19 05:14:00;;;;;;;8.55;4.93;;;;;;;15.19;68.09;98315.56;4957580;28;20401;-73
2024/03/19 05:16:25;;;;;;;11.20;5.53;;;;;;;15.11;62.18;98312.91;4957434;28;20031;-72
2024/03/19 05:18:51;;;;;;;9.00;5.38;;;;;;;15.04;59.91;98325.00;4957173;28;20039;-72
2024/03/19 05:21:16;;;;;;;9.30;4.72;;;;;;;14.90;58.78;98326.44;4925224;28;20027;-72
2024/03/19 05:23:43;;;;;;;7.68;5.05;;;;;;;15.13;68.71;98332.81;4924794;28;20124;-74
2024/03/19 05:26:08;;;;;;;11.15;5.00;;;;;;;15.11;64.03;98329.50;4941229;28;20391;-73
2024/03/19 05:28:34;;;;;;;13.15;4.88;;;;;;;15.07;61.81;98330.78;4925025;28;20050;-72
2024/03/19 05:30:59;;;;;;;14.63;5.30;;;;;;;14.94;60.50;98328.59;4940921;28;20109;-72
2024/03/19 05:33:25;;;;;;;13.50;4.85;;;;;;;14.90;59.28;98334.31;4940853;28;20031;-73
2024/03/19 05:35:53;;;;;;;8.13;4.45;;;;;;;14.80;58.76;98335.22;4924933;28;20039;-73
2024/03/19 05:38:20;;;;;;;7.43;4.47;;;;;;;14.79;57.77;98336.19;4941717;28;20069;-73
2024/03/19 05:40:45;;;;;;;8.63;4.40;;;;;;;14.70;57.03;98329.22;4923958;28;20042;-75
2024/03/19 05:43:11;;;;;;;7.25;4.35;;;;;;;14.71;56.42;98341.41;4938537;28;20050;-75
2024/03/19 05:45:36;;;;;;;7.75;4.60;;;;;;;14.66;55.90;98333.16;4923078;28;20079;-74
2024/03/19 05:48:02;;;;;;;7.82;4.20;;;;;;;14.65;55.05;98334.94;4938798;28;20054;-76
2024/03/19 05:50:32;;;;;;;6.55;4.00;;;;;;;14.67;54.19;98336.59;4955822;28;20047;-74
2024/03/19 05:52:58;;;;;;;6.95;4.47;;;;;;;14.68;53.57;98336.44;4939692;28;20041;-75
2024/03/19 05:55:24;;;;;;;12.88;5.18;;;;;;;14.71;52.77;98333.53;4923464;28;20575;-75
2024/03/19 05:57:49;;;;;;;7.38;5.40;;;;;;;14.78;52.02;98331.91;4924609;28;20116;-73
2024/03/19 06:00:21;;;;;;;13.27;6.05;;;;;;;14.80;51.67;98329.13;4956028;28;20033;-74
2024/03/19 06:02:47;;;;;;;10.23;6.80;;;;;;;14.91;51.22;98335.94;4942330;28;20034;-74
2024/03/19 06:05:12;;;;;;;12.13;6.50;;;;;;;14.91;51.15;98334.16;4939709;28;20042;-75
2024/03/19 06:07:38;;;;;;;14.13;7.22;;;;;;;14.96;50.78;98337.13;4938899;28;20548;-75
2024/03/19 06:10:04;;;;;;;12.80;7.38;;;;;;;15.00;50.68;98333.19;4940448;28;20027;-74
2024/03/19 06:12:30;;;;;;;10.30;6.43;;;;;;;15.06;50.26;98333.59;4956408;28;20062;-74
2024/03/19 06:14:55;;;;;;;12.30;6.20;;;;;;;15.15;49.58;98335.28;4939836;28;20113;-75
2024/03/19 06:17:21;;;;;;;14.75;6.35;;;;;;;15.27;49.23;98333.19;4940888;28;20429;-74
2024/03/19 06:19:47;;;;;;;13.75;6.30;;;;;;;15.40;48.92;98330.13;4940287;28;20034;-76
2024/03/19 06:22:12;;;;;;;11.10;5.75;;;;;;;15.53;48.68;98346.31;4923716;28;20050;-74
2024/03/19 06:24:38;;;;;;;11.88;6.15;;;;;;;15.60;48.55;98343.84;4940169;28;20054;-75
2024/03/19 06:27:04;;;;;;;13.80;6.07;;;;;;;15.64;48.52;98347.81;4940087;28;20118;-75
2024/03/19 06:29:30;;;;;;;9.68;5.20;;;;;;;15.66;48.57;98344.03;4956767;28;20031;-76
2024/03/19 06:31:55;;;;;;;11.93;5.30;;;;;;;15.63;48.55;98340.91;4924451;28;20492;-75
2024/03/19 06:34:21;;;;;;;10.57;4.57;;;;;;;15.67;48.54;98352.75;4939726;28;20062;-75
2024/03/19 06:36:46;;;;;;;8.90;4.75;;;;;;;15.69;48.52;98354.25;4956327;28;20110;-76
2024/03/19 06:39:16;;;;;;;9.73;5.13;;;;;;;15.72;48.73;98356.56;4924458;28;20038;-76
2024/03/19 06:41:41;;;;;;;8.27;4.55;;;;;;;15.72;48.66;98350.50;4956738;28;20027;-74
2024/03/19 06:44:10;;;;;;;8.82;3.88;;;;;;;15.92;57.90;98356.31;4929091;28;20097;-75
2024/03/19 06:46:36;;;;;;;;;;;;;;;16.02;55.58;98359.66;4956716;28;20470;-75
2024/03/19 06:49:01;;;;;;;8.00;4.38;;;;;;;15.99;54.53;98354.69;4939958;28;19914;-78
2024/03/19 06:51:36;;;;;;;12.27;4.03;;;;;;;16.38;62.03;98369.91;4924177;28;20054;-79
2024/03/19 06:54:01;;;;;;;14.15;4.15;;;;;;;16.55;57.49;98368.09;4973373;28;20027;-76
2024/03/19 06:56:27;;;;;;;10.30;4.82;;;;;;;16.53;55.37;98364.00;4955367;28;20097;-76
2024/03/19 06:58:52;;;;;;;9.95;4.43;;;;;;;16.64;54.17;98375.03;4939605;28;20030;-77
2024/03/19 07:01:18;;;;;;;9.30;4.30;;;;;;;16.98;53.23;98375.84;4939514;28;20078;-75
2024/03/19 07:03:43;;;;;;;11.75;4.75;;;;;;;17.50;51.22;98375.38;4940045;28;20493;-74
2024/03/19 07:06:10;;;;;;;6.78;4.70;;;;;;;18.21;48.90;98371.97;4923485;28;20043;-76
2024/03/19 07:08:35;;;;;;;11.65;4.80;;;;;;;18.54;48.90;98379.66;4955699;28;20041;-76
2024/03/19 07:11:02;;;;;;;7.55;4.45;;;;;;;19.00;47.92;98370.88;4939085;28;20055;-73
2024/03/19 07:13:29;;;;;;;7.30;4.80;;;;;;;19.29;47.96;98370.06;4955759;28;20085;-74
2024/03/19 07:15:54;;;;;;;8.80;5.20;;;;;;;20.26;45.36;98363.75;4940359;28;20027;-76
2024/03/19 07:18:22;;;;;;;11.75;5.65;;;;;;;21.42;43.50;98374.06;4923750;28;20027;-75
2024/03/19 07:20:47;;;;;;;11.02;6.15;;;;;;;22.10;40.68;98372.53;4942229;28;20480;-74
2024/03/19 07:23:13;;;;;;;13.82;6.65;;;;;;;22.69;40.83;98371.03;4927206;28;20059;-76
2024/03/19 07:25:38;;;;;;;44.58;12.43;;;;;;;22.82;41.89;98368.38;4943378;28;20502;-79
2024/03/19 07:28:04;;;;;;;25.42;9.02;;;;;;;23.22;40.33;98371.03;4913597;29;20059;-77
2024/03/19 07:30:31;;;;;;;62.63;15.73;;;;;;;23.86;38.49;98365.13;4956456;29;20026;-78
2024/03/19 07:33:09;;;;;;;41.50;12.37;;;;;;;23.67;37.99;98365.78;4924787;29;20039;-76
2024/03/19 07:35:37;;;;;;;20.25;7.65;;;;;;;23.70;38.03;98358.38;4957717;29;20024;-76
2024/03/19 07:38:06;;;;;;;17.88;7.10;;;;;;;23.60;37.56;98370.31;4908874;29;20035;-76
2024/03/19 07:40:31;;;;;;;17.30;7.35;;;;;;;23.67;36.47;98375.59;4923990;29;20043;-76
2024/03/19 07:42:57;;;;;;;14.75;6.25;;;;;;;23.54;37.26;98375.66;4923321;29;20039;-78
2024/03/19 07:45:22;;;;;;;11.25;6.15;;;;;;;23.62;37.98;98380.75;4956224;29;20035;-77
2024/03/19 07:47:50;;;;;;;13.18;5.95;;;;;;;23.91;37.10;98374.13;4923454;29;20046;-78
2024/03/19 07:50:22;;;;;;;12.43;6.43;;;;;;;25.18;35.23;98370.56;4923733;29;20113;-77
2024/03/19 07:52:47;;;;;;;27.08;6.55;;;;;;;25.99;34.42;98367.84;4940419;29;20040;-77
2024/03/19 07:55:13;;;;;;;19.80;5.78;;;;;;;25.85;35.04;98377.06;4923409;29;20047;-77
2024/03/19 07:57:38;;;;;;;16.23;5.80;;;;;;;27.55;33.07;98387.44;4907775;29;20495;-77
2024/03/19 08:00:11;;;;;;;46.53;13.45;;;;;;;27.53;46.06;98378.81;4923693;29;20035;-79
2024/03/19 08:02:39;;;;;;;21.50;8.02;;;;;;;28.10;36.06;98380.75;4940480;29;20047;-76
2024/03/19 08:05:08;;;;;;;24.13;8.15;;;;;;;27.53;39.28;98381.47;4938904;29;20066;-76
2024/03/19 08:07:35;;;;;;;14.32;7.85;;;;;;;27.36;41.36;98387.56;4939135;29;20388;-78
2024/03/19 08:10:00;;;;;;;21.55;7.95;;;;;;;27.24;44.62;98381.38;4923624;29;20110;-73
2024/03/19 08:12:26;;;;;;;15.85;7.10;;;;;;;26.55;40.29;98384.53;4907281;29;20513;-77
2024/03/19 08:14:52;;;;;;;15.38;7.47;;;;;;;25.73;39.82;98377.81;4923387;29;20032;-77
2024/03/19 08:17:18;;;;;;;19.13;7.32;;;;;;;25.13;42.42;98380.25;4923768;29;20458;-76
2024/03/19 08:19:43;;;;;;;13.00;6.47;;;;;;;25.19;49.29;98385.56;4907433;29;20038;-74
2024/03/19 08:22:09;;;;;;;7.75;4.70;;;;;;;24.18;32.59;98374.78;4922981;29;20051;-74
2024/03/19 08:24:34;;;;;;;18.70;5.88;;;;;;;23.57;35.04;98384.03;4922663;29;20078;-75
2024/03/19 08:27:00;;;;;;;17.55;5.80;;;;;;;23.20;38.23;98380.22;4907413;29;20482;-74
2024/03/19 08:29:26;;;;;;;15.02;5.65;;;;;;;22.25;35.16;98378.53;4939231;29;20031;-79
2024/03/19 08:31:51;;;;;;;13.30;5.60;;;;;;;21.98;39.30;98390.91;4923923;29;20031;-80
2024/03/19 08:34:18;;;;;;;16.80;5.95;;;;;;;21.12;37.72;98384.09;4939759;29;20474;-80
2024/03/19 08:36:43;;;;;;;9.00;4.78;;;;;;;20.56;41.37;98401.56;4954763;29;20051;-87
2024/03/19 08:39:10;;;;;;;8.10;5.05;;;;;;;20.37;43.72;98389.75;4927373;29;20023;-91
2024/03/19 08:41:38;;;;;;;10.55;5.50;;;;;;;20.20;44.35;98389.16;4915613;29;20058;-91
2024/03/19 08:44:06;;;;;;;8.80;5.25;;;;;;;20.02;43.22;98396.69;4953146;29;20118;-92
2024/03/19 08:46:32;;;;;;;15.10;6.25;;;;;;;19.77;42.23;98398.88;4941722;29;20118;-89
2024/03/19 08:48:58;;;;;;;11.50;5.00;;;;;;;19.63;47.95;98408.44;5010385;23;20510;-82
2024/03/19 08:51:26;;;;;;;18.88;5.18;;;;;;;19.62;47.73;98404.13;4993793;28;20027;-83
2024/03/19 08:53:51;;;;;;;16.00;5.18;;;;;;;19.63;47.65;98409.25;4961230;28;20035;-84
2024/03/19 08:56:17;;;;;;;15.43;5.90;;;;;;;19.53;50.22;98416.66;4993989;28;20026;-83
2024/03/19 08:58:43;;;;;;;13.20;6.07;;;;;;;19.50;52.43;98409.88;4994100;28;20134;-85
2024/03/19 09:01:13;;;;;;;13.98;5.90;;;;;;;19.55;51.41;98417.28;4961336;28;20072;-79
2024/03/19 09:03:39;;;;;;;24.15;6.80;;;;;;;19.56;52.54;98421.59;4992854;28;20065;-76
2024/03/19 09:16:25;;;;;;;16.15;5.85;;;;;;;19.73;51.94;98422.19;4972640;28;20513;-85
2024/03/19 09:18:51;;;;;;;16.20;6.07;;;;;;;19.73;51.28;98418.72;4940353;29;20030;-85
2024/03/19 09:21:18;;;;;;;16.30;4.85;;;;;;;19.73;50.08;98416.09;4939596;29;20428;-85
2024/03/19 09:23:44;;;;;;;19.77;5.43;;;;;;;19.71;50.24;98413.63;4924602;29;20019;-86
2024/03/19 09:26:09;;;;;;;12.60;5.40;;;;;;;19.75;49.58;98414.06;4923667;29;20046;-85
2024/03/19 09:28:35;;;;;;;13.35;4.85;;;;;;;19.79;49.52;98418.84;4939054;29;20039;-84
2024/03/19 09:31:02;;;;;;;9.40;4.60;;;;;;;19.81;52.46;98418.66;4957745;28;20103;-87
2024/03/19 09:33:28;;;;;;;13.70;4.88;;;;;;;19.77;50.45;98414.75;4954636;29;20027;-79
2024/03/19 09:35:55;;;;;;;11.57;4.93;;;;;;;19.62;50.47;98402.28;4938203;29;20042;-82
2024/03/19 09:38:21;;;;;;;8.10;4.60;;;;;;;19.56;51.56;98420.75;4938084;29;20027;-81
2024/03/19 09:40:56;;;;;;;9.25;4.70;;;;;;;19.38;52.22;98419.28;4938654;29;20463;-80
2024/03/19 09:43:23;;;;;;;13.38;5.28;;;;;;;19.15;52.58;98412.22;4922936;29;20043;-80
2024/03/19 09:45:48;;;;;;;10.55;5.90;;;;;;;19.04;53.13;98420.59;4937373;29;20102;-83
2024/03/19 09:48:14;;;;;;;12.57;5.65;;;;;;;18.89;53.98;98415.25;4937903;29;20055;-82
2024/03/19 09:50:43;;;;;;;11.88;5.45;;;;;;;18.73;54.19;98416.19;4938006;29;20055;-82
2024/03/19 09:53:17;;;;;;;9.65;5.80;;;;;;;18.60;54.41;98424.72;4938617;29;20153;-85
2024/03/19 09:55:43;;;;;;;10.57;5.97;;;;;;;18.46;55.00;98417.53;4923421;29;20047;-83
2024/03/19 09:58:09;;;;;;;14.65;6.68;;;;;;;18.32;55.42;98427.03;4922240;29;20039;-80
2024/03/19 10:00:34;;;;;;;12.20;6.90;;;;;;;18.16;55.84;98412.09;4921475;29;20038;-81
2024/03/19 10:03:00;;;;;;;10.80;6.80;;;;;;;18.10;55.66;98422.53;4954115;29;20043;-82
2024/03/19 10:05:26;;;;;;;11.30;7.35;;;;;;;18.01;56.28;98424.38;4954134;29;20039;-82
2024/03/19 10:07:53;;;;;;;9.38;6.78;;;;;;;17.92;56.39;98422.78;4937542;29;20043;-83
2024/03/19 10:10:18;;;;;;;9.98;6.82;;;;;;;17.82;56.79;98420.31;4923213;29;20113;-82
2024/03/19 10:12:44;;;;;;;11.40;6.80;;;;;;;17.71;56.97;98419.72;4938120;29;20403;-83
2024/03/19 10:15:21;;;;;;;9.88;6.50;;;;;;;17.70;57.13;98422.53;4938142;29;20027;-82
2024/03/19 10:17:47;;;;;;;9.75;6.65;;;;;;;17.58;57.37;98418.59;4922233;29;20479;-82
2024/03/19 10:20:14;;;;;;;12.18;7.00;;;;;;;17.56;57.73;98426.69;4937872;29;20031;-82
2024/03/19 10:22:40;;;;;;;9.82;6.57;;;;;;;17.45;58.01;98419.13;4954094;29;20490;-81
2024/03/19 10:25:06;;;;;;;12.40;6.95;;;;;;;17.45;57.97;98432.31;4937708;29;20483;-82
2024/03/19 10:27:31;;;;;;;10.68;7.32;;;;;;;17.37;58.12;98422.59;4921343;29;20046;-83
2024/03/19 10:29:57;;;;;;;12.18;7.03;;;;;;;17.37;58.36;98433.16;4937850;29;20491;-81
2024/03/19 10:32:23;;;;;;;11.00;6.63;;;;;;;17.30;58.79;98413.69;4938186;29;20042;-82
2024/03/19 10:34:48;;;;;;;10.45;7.47;;;;;;;17.33;58.86;98416.84;4937240;29;20190;-83
2024/03/19 10:37:14;;;;;;;9.93;7.30;;;;;;;17.38;59.27;98424.25;4937982;29;20043;-82
2024/03/19 10:39:40;;;;;;;9.77;6.18;;;;;;;17.45;58.98;98425.22;4955894;28;20314;-84
2024/03/19 10:42:06;;;;;;;11.13;6.80;;;;;;;17.53;58.73;98425.19;4932761;29;20039;-82
2024/03/19 10:44:35;;;;;;;11.70;6.63;;;;;;;17.67;58.75;98422.84;4922724;29;20035;-84
2024/03/19 10:47:03;;;;;;;11.13;6.78;;;;;;;17.79;58.74;98424.13;4940742;28;20051;-86
2024/03/19 10:49:30;;;;;;;12.85;7.10;;;;;;;17.89;58.58;98410.75;4945153;28;20035;-86
2024/03/19 10:52:19;;;;;;;12.10;6.73;;;;;;;17.94;58.47;98407.59;4935532;28;20035;-82
2024/03/19 10:54:45;;;;;;;9.50;6.55;;;;;;;18.05;58.56;98417.78;4943063;28;20280;-82
2024/03/19 10:57:15;;;;;;;9.95;5.90;;;;;;;18.10;57.63;98411.97;4960491;28;20465;-83
2024/03/19 10:59:42;;;;;;;9.45;5.55;;;;;;;18.10;57.68;98407.50;4945433;28;20461;-84
2024/03/19 11:02:08;;;;;;;9.40;5.68;;;;;;;18.14;57.04;98397.41;4945563;28;20035;-83
2024/03/19 11:04:35;;;;;;;7.18;4.68;;;;;;;18.26;55.88;98396.88;4929812;28;20046;-85
2024/03/19 11:07:01;;;;;;;6.17;3.83;;;;;;;18.45;55.31;98405.31;4929990;28;20046;-83
2024/03/19 11:09:28;;;;;;;7.85;3.67;;;;;;;18.55;54.26;98405.06;4978775;28;20030;-85
2024/03/19 11:11:54;;;;;;;5.00;3.15;;;;;;;18.59;54.10;98401.09;4960534;28;20030;-86
2024/03/19 11:14:21;;;;;;;5.63;3.30;;;;;;;18.59;53.74;98398.44;4944358;28;20053;-82
2024/03/19 11:16:46;;;;;;;5.32;3.28;;;;;;;18.63;53.33;98397.13;4944691;28;20140;-83
2024/03/19 11:19:25;;;;;;;7.28;3.30;;;;;;;18.62;53.20;98395.47;4960651;28;20034;-85
2024/03/19 11:21:53;;;;;;;;;;;;;;;18.62;52.99;98387.53;4946255;28;20047;-82
2024/03/19 11:24:38;;;;;;;5.97;2.85;;;;;;;18.58;53.13;98389.72;4960205;28;19960;-84
2024/03/19 11:27:07;;;;;;;6.10;3.22;;;;;;;18.59;52.49;98387.88;4960373;28;20030;-84
2024/03/19 11:29:40;;;;;;;6.68;3.25;;;;;;;18.50;52.24;98386.28;4959427;28;20042;-84
2024/03/19 11:32:08;;;;;;;6.05;3.83;;;;;;;18.50;51.42;98395.06;4946304;28;20084;-84
2024/03/19 11:34:33;;;;;;;5.43;3.53;;;;;;;18.45;51.31;98394.75;4961622;28;20046;-84